createdAt,value
2022-09-10T00:02:01.045Z,1.60
2022-09-10T00:04:28.957Z,0.73
2022-09-10T00:06:57.125Z,0.93
2022-09-10T00:09:24.675Z,3.00
2022-09-10T00:11:52.153Z,1.07
2022-09-10T00:14:21.228Z,1.30
2022-09-10T00:16:48.972Z,2.20
2022-09-10T00:19:17.085Z,2.43
2022-09-10T00:21:44.924Z,2.30
2022-09-10T00:24:12.371Z,3.60
2022-09-10T00:26:40.209Z,2.83
2022-09-10T00:29:09.356Z,1.70
2022-09-10T00:31:37.281Z,3.00
2022-09-10T00:34:05.309Z,2.00
2022-09-10T00:36:34.429Z,2.57
2022-09-10T00:39:02.729Z,6.23
2022-09-10T00:41:30.469Z,2.80
2022-09-10T00:43:58.026Z,3.00
2022-09-10T00:46:28.709Z,1.37
2022-09-10T00:48:57.304Z,2.97
2022-09-10T00:51:25.645Z,3.40
2022-09-10T00:53:53.745Z,3.43
2022-09-10T00:56:21.298Z,1.30
2022-09-10T00:58:49.320Z,3.17
2022-09-10T01:01:16.988Z,6.43
2022-09-10T01:03:44.890Z,1.77
2022-09-10T01:06:13.297Z,2.60
2022-09-10T01:08:40.789Z,2.90
2022-09-10T01:11:11.479Z,3.70
2022-09-10T01:13:39.110Z,1.50
2022-09-10T01:16:13.009Z,3.13
2022-09-10T01:18:52.606Z,1.10
2022-09-10T01:21:24.460Z,5.00
2022-09-10T01:23:57.727Z,3.50
2022-09-10T01:26:25.151Z,1.63
2022-09-10T01:28:52.616Z,1.73
2022-09-10T01:31:26.467Z,4.03
2022-09-10T01:34:00.371Z,2.87
2022-09-10T01:36:29.258Z,3.13
2022-09-10T01:38:56.686Z,3.70
2022-09-10T01:41:24.762Z,3.73
2022-09-10T01:43:52.227Z,2.37
2022-09-10T01:46:19.660Z,4.90
2022-09-10T01:48:59.756Z,2.07
2022-09-10T01:51:27.162Z,2.67
2022-09-10T01:54:11.621Z,2.40
2022-09-10T01:56:44.650Z,1.50
2022-09-10T01:59:30.942Z,3.07
2022-09-10T02:02:04.210Z,3.20
2022-09-10T02:04:32.679Z,2.73
2022-09-10T02:07:11.026Z,2.70
2022-09-10T02:12:48.407Z,3.70
2022-09-10T02:15:16.854Z,1.30
2022-09-10T02:17:44.871Z,2.17
2022-09-10T02:20:13.227Z,2.33
2022-09-10T02:22:42.963Z,5.30
2022-09-10T02:25:10.706Z,4.33
2022-09-10T02:27:38.273Z,3.33
2022-09-10T02:30:07.503Z,2.03
2022-09-10T02:32:34.950Z,3.47
2022-09-10T02:35:02.416Z,5.17
2022-09-10T02:37:29.811Z,2.40
2022-09-10T02:39:57.318Z,2.63
2022-09-10T02:42:24.838Z,4.27
2022-09-10T02:44:52.376Z,4.63
2022-09-10T02:47:19.847Z,3.37
2022-09-10T02:49:47.295Z,3.07
2022-09-10T02:52:14.780Z,4.17
2022-09-10T02:54:42.283Z,2.27
2022-09-10T02:57:09.742Z,3.97
2022-09-10T02:59:37.183Z,5.30
2022-09-10T03:02:04.745Z,7.00
2022-09-10T03:04:32.281Z,3.27
2022-09-10T03:06:59.721Z,5.53
2022-09-10T03:09:27.162Z,3.63
2022-09-10T03:11:54.644Z,6.63
2022-09-10T03:14:22.175Z,4.40
2022-09-10T03:16:49.854Z,2.47
2022-09-10T03:19:17.706Z,3.90
2022-09-10T03:21:45.322Z,3.87
2022-09-10T03:24:15.308Z,7.00
2022-09-10T03:26:43.070Z,5.83
2022-09-10T03:29:10.582Z,3.77
2022-09-10T03:31:38.307Z,4.00
2022-09-10T03:34:05.766Z,3.97
2022-09-10T03:36:33.406Z,4.57
2022-09-10T03:39:00.946Z,5.47
2022-09-10T03:41:28.709Z,5.97
2022-09-10T03:43:56.401Z,4.63
2022-09-10T03:46:24.227Z,5.90
2022-09-10T03:48:55.201Z,4.70
2022-09-10T03:51:23.422Z,7.10
2022-09-10T03:53:51.664Z,6.23
2022-09-10T03:56:19.125Z,7.73
2022-09-10T03:58:46.696Z,4.93
2022-09-10T04:01:14.422Z,5.93
2022-09-10T04:03:41.898Z,9.43
2022-09-10T04:06:13.617Z,21.90
2022-09-10T04:08:41.367Z,4.27
2022-09-10T04:11:08.838Z,7.07
2022-09-10T04:13:36.309Z,7.30
2022-09-10T04:16:04.030Z,3.97
2022-09-10T04:18:31.738Z,5.10
2022-09-10T04:20:59.175Z,3.83
2022-09-10T04:23:26.713Z,6.23
2022-09-10T04:25:54.161Z,8.50
2022-09-10T04:28:21.597Z,7.87
2022-09-10T04:30:49.016Z,5.10
2022-09-10T04:33:16.447Z,5.37
2022-09-10T04:35:44.078Z,6.00
2022-09-10T04:38:11.554Z,4.30
2022-09-10T04:40:38.977Z,6.03
2022-09-10T04:43:06.652Z,5.53
2022-09-10T04:45:34.144Z,13.47
2022-09-10T04:48:06.821Z,5.97
2022-09-10T04:50:34.926Z,9.83
2022-09-10T04:53:02.540Z,10.57
2022-09-10T04:55:31.268Z,4.57
2022-09-10T04:57:58.825Z,6.43
2022-09-10T05:00:26.453Z,6.47
2022-09-10T05:02:53.957Z,7.33
2022-09-10T05:05:21.461Z,5.70
2022-09-10T05:07:49.095Z,8.70
2022-09-10T05:10:16.616Z,9.10
2022-09-10T05:12:44.047Z,6.30
2022-09-10T05:15:11.691Z,9.23
2022-09-10T05:17:39.121Z,8.93
2022-09-10T05:20:07.154Z,6.93
2022-09-10T05:22:40.123Z,4.77
2022-09-10T05:25:08.217Z,4.80
2022-09-10T05:27:35.784Z,6.63
2022-09-10T05:30:03.326Z,7.00
2022-09-10T05:32:30.989Z,4.57
2022-09-10T05:34:58.482Z,9.60
2022-09-10T05:37:25.920Z,7.23
2022-09-10T05:39:53.383Z,6.73
2022-09-10T05:42:20.864Z,11.30
2022-09-10T05:44:48.370Z,6.00
2022-09-10T05:47:15.894Z,5.57
2022-09-10T05:49:43.463Z,5.30
2022-09-10T05:52:10.904Z,8.13
2022-09-10T05:54:38.480Z,7.83
2022-09-10T05:57:06.196Z,7.30
2022-09-10T05:59:33.801Z,8.40
2022-09-10T06:02:01.402Z,5.07
2022-09-10T06:04:29.365Z,5.40
2022-09-10T06:06:56.837Z,6.07
2022-09-10T06:09:24.470Z,5.60
2022-09-10T06:11:51.958Z,5.13
2022-09-10T06:14:19.437Z,10.20
2022-09-10T06:16:50.138Z,6.00
2022-09-10T06:19:17.825Z,14.17
2022-09-10T06:21:45.314Z,8.53
2022-09-10T06:24:12.954Z,6.73
2022-09-10T06:26:40.707Z,9.33
2022-09-10T06:29:09.059Z,5.60
2022-09-10T06:31:36.485Z,9.00
2022-09-10T06:34:04.094Z,5.50
2022-09-10T06:36:31.616Z,4.80
2022-09-10T06:38:59.276Z,7.23
2022-09-10T06:41:27.254Z,5.37
2022-09-10T06:43:55.078Z,4.67
2022-09-10T06:47:01.638Z,8.03
2022-09-10T06:49:11.655Z,9.63
2022-09-10T06:51:39.320Z,4.33
2022-09-10T06:54:07.218Z,9.03
2022-09-10T06:56:35.034Z,6.07
2022-09-10T06:59:02.862Z,7.67
2022-09-10T07:01:30.610Z,6.80
2022-09-10T07:03:59.830Z,6.30
2022-09-10T07:06:27.966Z,5.87
2022-09-10T07:08:58.936Z,8.90
2022-09-10T07:11:27.242Z,4.63
2022-09-10T07:13:54.721Z,6.00
2022-09-10T07:16:23.704Z,4.10
2022-09-10T07:18:51.909Z,11.73
2022-09-10T07:21:19.676Z,5.67
2022-09-10T07:23:47.830Z,4.70
2022-09-10T07:26:16.384Z,11.83
2022-09-10T07:28:44.177Z,7.23
2022-09-10T07:31:19.665Z,5.77
2022-09-10T07:33:47.862Z,5.27
2022-09-10T07:36:15.499Z,8.30
2022-09-10T07:38:43.495Z,6.57
2022-09-10T07:41:12.533Z,4.43
2022-09-10T07:43:43.651Z,16.30
2022-09-10T07:46:12.320Z,7.13
2022-09-10T07:48:40.853Z,7.50
2022-09-10T07:51:09.268Z,6.73
2022-09-10T07:53:36.889Z,7.47
2022-09-10T07:56:08.297Z,7.03
2022-09-10T07:58:36.309Z,4.83
2022-09-10T08:01:07.224Z,8.53
2022-09-10T08:03:34.678Z,9.30
2022-09-10T08:06:03.019Z,5.97
2022-09-10T08:08:31.232Z,15.77
2022-09-10T08:11:18.173Z,5.70
2022-09-10T08:13:47.223Z,7.17
2022-09-10T08:16:19.503Z,5.07
2022-09-10T08:18:47.889Z,5.30
2022-09-10T08:21:16.015Z,7.03
2022-09-10T08:23:43.932Z,5.63
2022-09-10T08:26:11.344Z,4.73
2022-09-10T08:28:38.926Z,9.03
2022-09-10T08:31:08.028Z,7.53
2022-09-10T08:33:36.384Z,6.57
2022-09-10T08:36:04.921Z,5.80
2022-09-10T08:38:36.408Z,5.93
2022-09-10T08:41:10.500Z,5.80
2022-09-10T08:43:43.733Z,8.63
2022-09-10T08:46:16.967Z,7.93
2022-09-10T08:48:45.878Z,8.47
2022-09-10T08:51:15.829Z,8.93
2022-09-10T08:53:56.536Z,8.23
2022-09-10T08:56:24.733Z,7.90
2022-09-10T08:58:57.673Z,8.23
2022-09-10T09:01:31.203Z,8.57
2022-09-10T09:04:01.680Z,10.37
2022-09-10T09:06:44.656Z,8.40
2022-09-10T09:09:15.830Z,14.13
2022-09-10T09:11:46.416Z,10.20
2022-09-10T09:14:20.048Z,11.10
2022-09-10T09:17:06.584Z,7.33
2022-09-10T09:19:35.509Z,9.47
2022-09-10T09:22:18.003Z,10.77
2022-09-10T09:24:59.039Z,10.70
2022-09-10T09:27:28.129Z,8.17
2022-09-10T09:30:04.533Z,8.80
2022-09-10T09:32:34.785Z,8.00
2022-09-10T09:35:22.827Z,9.33
2022-09-10T09:37:52.584Z,10.23
2022-09-10T09:40:33.093Z,11.00
2022-09-10T09:43:20.345Z,10.97
2022-09-10T09:45:47.970Z,10.27
2022-09-10T09:48:19.799Z,7.67
2022-09-10T09:50:49.220Z,6.67
2022-09-10T09:53:24.789Z,10.60
2022-09-10T09:56:02.232Z,14.97
2022-09-10T09:58:31.373Z,9.17
2022-09-10T10:01:05.210Z,11.03
2022-09-10T10:03:34.114Z,11.93
2022-09-10T10:06:06.306Z,9.97
2022-09-10T10:08:43.594Z,11.47
2022-09-10T10:11:14.694Z,14.60
2022-09-10T10:13:44.242Z,11.07
2022-09-10T10:16:21.730Z,15.70
2022-09-10T10:18:49.851Z,11.00
2022-09-10T10:21:18.887Z,9.27
2022-09-10T10:23:46.916Z,10.47
2022-09-10T10:26:20.433Z,10.83
2022-09-10T10:28:48.126Z,12.93
2022-09-10T10:31:16.089Z,12.40
2022-09-10T10:34:02.221Z,10.27
2022-09-10T10:36:48.614Z,9.67
2022-09-10T10:39:16.020Z,13.53
2022-09-10T10:42:01.366Z,11.30
2022-09-10T10:44:47.588Z,10.77
2022-09-10T10:47:24.414Z,10.60
2022-09-10T10:49:57.965Z,10.70
2022-09-10T10:52:40.703Z,12.87
2022-09-10T10:55:13.750Z,9.20
2022-09-10T10:57:41.233Z,8.10
2022-09-10T11:00:11.615Z,8.57
2022-09-10T11:02:39.324Z,10.07
2022-09-10T11:05:33.287Z,12.30
2022-09-10T11:08:04.601Z,11.17
2022-09-10T11:10:35.812Z,8.90
2022-09-10T11:13:06.304Z,12.30
2022-09-10T11:15:48.191Z,9.20
2022-09-10T11:18:18.988Z,11.10
2022-09-10T11:20:56.933Z,11.23
2022-09-10T11:23:24.584Z,11.37
2022-09-10T11:25:58.257Z,15.87
2022-09-10T11:28:28.864Z,10.53
2022-09-10T11:31:00.797Z,12.03
2022-09-10T11:33:32.010Z,10.77
2022-09-10T11:35:59.525Z,12.23
2022-09-10T11:38:36.187Z,9.83
2022-09-10T11:41:14.960Z,15.97
2022-09-10T11:43:42.627Z,13.40
2022-09-10T11:46:22.008Z,9.90
2022-09-10T11:48:57.251Z,9.23
2022-09-10T11:51:26.963Z,11.93
2022-09-10T11:53:55.458Z,10.97
2022-09-10T11:56:22.924Z,9.30
2022-09-10T11:59:26.017Z,9.37
2022-09-10T12:02:05.564Z,9.30
2022-09-10T12:04:40.824Z,8.67
2022-09-10T12:07:28.321Z,9.20
2022-09-10T12:09:58.723Z,8.00
2022-09-10T12:12:29.197Z,8.47
2022-09-10T12:14:56.825Z,11.37
2022-09-10T12:17:30.450Z,9.77
2022-09-10T12:19:59.201Z,9.07
2022-09-10T12:22:34.296Z,8.83
2022-09-10T12:25:01.813Z,7.47
2022-09-10T12:27:47.812Z,6.80
2022-09-10T12:30:27.596Z,9.50
2022-09-10T12:32:55.937Z,9.53
2022-09-10T12:35:32.621Z,9.53
2022-09-10T12:38:18.711Z,7.13
2022-09-10T12:40:46.634Z,12.53
2022-09-10T12:43:33.146Z,7.57
2022-09-10T12:46:01.874Z,7.97
2022-09-10T12:48:29.544Z,8.80
2022-09-10T12:50:59.464Z,8.07
2022-09-10T12:53:38.053Z,9.03
2022-09-10T12:56:15.996Z,9.53
2022-09-10T12:58:49.531Z,8.23
2022-09-10T13:01:29.248Z,11.07
2022-09-10T13:03:58.313Z,7.27
2022-09-10T13:06:36.084Z,7.50
2022-09-10T13:09:05.240Z,7.40
2022-09-10T13:11:35.076Z,8.70
2022-09-10T13:14:04.449Z,10.53
2022-09-10T13:16:31.960Z,8.47
2022-09-10T13:19:14.868Z,11.47
2022-09-10T13:21:45.111Z,7.63
2022-09-10T13:24:32.366Z,12.10
2022-09-10T13:27:23.433Z,12.70
2022-09-10T13:29:53.619Z,11.43
2022-09-10T13:32:27.267Z,10.77
2022-09-10T13:35:20.091Z,8.63
2022-09-10T13:38:03.929Z,8.07
2022-09-10T13:40:51.715Z,8.37
2022-09-10T13:43:25.076Z,12.67
2022-09-10T13:45:54.596Z,9.30
2022-09-10T13:48:42.289Z,9.17
2022-09-10T13:51:09.750Z,12.03
2022-09-10T13:53:40.889Z,9.73
2022-09-10T13:56:14.438Z,8.70
2022-09-10T13:58:45.714Z,11.00
2022-09-10T14:01:13.310Z,11.23
2022-09-10T14:03:40.893Z,10.43
2022-09-10T14:06:11.097Z,6.80
2022-09-10T14:08:59.282Z,9.23
2022-09-10T14:11:28.930Z,11.93
2022-09-10T14:14:01.902Z,7.50
2022-09-10T14:16:49.623Z,7.10
2022-09-10T14:19:20.025Z,7.23
2022-09-10T14:21:48.504Z,10.33
2022-09-10T14:24:27.695Z,7.30
2022-09-10T14:27:05.761Z,10.87
2022-09-10T14:29:33.292Z,6.80
2022-09-10T14:32:16.680Z,9.03
2022-09-10T14:34:44.195Z,8.73
2022-09-10T14:37:31.675Z,10.27
2022-09-10T14:40:06.800Z,9.30
2022-09-10T14:42:35.961Z,8.77
2022-09-10T14:45:03.482Z,8.77
2022-09-10T14:47:33.032Z,7.03
2022-09-10T14:50:19.155Z,6.87
2022-09-10T14:52:46.839Z,7.27
2022-09-10T14:55:14.375Z,8.90
2022-09-10T14:57:41.995Z,6.60
2022-09-10T15:00:13.830Z,6.23
2022-09-10T15:02:41.868Z,6.73
2022-09-10T15:05:16.049Z,5.10
2022-09-10T15:07:46.767Z,8.40
2022-09-10T15:10:14.603Z,7.17
2022-09-10T15:12:43.467Z,6.20
2022-09-10T15:15:17.207Z,7.53
2022-09-10T15:17:45.448Z,6.37
2022-09-10T15:20:13.724Z,5.83
2022-09-10T15:22:41.410Z,6.40
2022-09-10T15:25:18.833Z,9.37
2022-09-10T15:27:46.288Z,3.30
2022-09-10T15:30:13.920Z,2.80
2022-09-10T15:32:41.582Z,1.70
2022-09-10T15:35:09.516Z,1.83
2022-09-10T15:37:37.062Z,1.87
2022-09-10T15:40:05.109Z,1.23
2022-09-10T15:42:32.798Z,1.20
2022-09-10T15:45:00.287Z,1.40
2022-09-10T15:47:27.888Z,1.60
2022-09-10T15:49:55.321Z,2.90
2022-09-10T15:52:22.795Z,2.17
2022-09-10T15:54:50.208Z,2.03
2022-09-10T15:57:17.877Z,2.70
2022-09-10T15:59:45.312Z,3.57
2022-09-10T16:02:12.997Z,4.53
2022-09-10T16:04:43.009Z,4.60
2022-09-10T16:07:10.726Z,4.33
2022-09-10T16:09:46.367Z,5.17
2022-09-10T16:12:14.038Z,3.90
2022-09-10T16:14:41.673Z,4.83
2022-09-10T16:17:09.310Z,5.50
2022-09-10T16:19:37.388Z,8.53
2022-09-10T16:22:05.757Z,6.70
2022-09-10T16:24:33.254Z,5.87
2022-09-10T16:27:01.068Z,8.27
2022-09-10T16:29:28.573Z,6.90
2022-09-10T16:31:56.202Z,7.07
2022-09-10T16:34:23.672Z,9.23
2022-09-10T16:36:51.156Z,9.10
2022-09-10T16:39:19.707Z,12.83
2022-09-10T16:41:48.220Z,9.60
2022-09-10T16:44:16.578Z,8.20
2022-09-10T16:46:44.339Z,10.13
2022-09-10T16:49:12.427Z,9.40
2022-09-10T16:51:40.918Z,9.73
2022-09-10T16:54:08.849Z,8.93
2022-09-10T16:56:40.272Z,10.67
2022-09-10T16:59:08.643Z,11.00
2022-09-10T17:01:36.962Z,8.80
2022-09-10T17:04:05.041Z,11.53
2022-09-10T17:06:32.622Z,10.00
2022-09-10T17:09:17.078Z,12.53
2022-09-10T17:11:44.622Z,10.53
2022-09-10T17:14:12.080Z,9.90
2022-09-10T17:16:40.722Z,11.33
2022-09-10T17:19:15.185Z,12.13
2022-09-10T17:21:44.077Z,10.47
2022-09-10T17:24:12.349Z,15.13
2022-09-10T17:26:40.716Z,13.00
2022-09-10T17:29:09.686Z,11.57
2022-09-10T17:31:37.367Z,12.93
2022-09-10T17:34:05.172Z,14.83
2022-09-10T17:36:33.478Z,10.67
2022-09-10T17:39:01.258Z,11.33
2022-09-10T17:41:29.221Z,12.30
2022-09-10T17:43:58.528Z,14.40
2022-09-10T17:46:26.658Z,10.50
2022-09-10T17:48:54.932Z,13.13
2022-09-10T17:51:25.998Z,11.90
2022-09-10T17:53:54.165Z,11.50
2022-09-10T17:56:22.257Z,9.67
2022-09-10T17:58:49.909Z,12.17
2022-09-10T18:01:28.161Z,11.17
2022-09-10T18:03:56.114Z,13.73
2022-09-10T18:06:24.110Z,11.40
2022-09-10T18:08:52.253Z,10.23
2022-09-10T18:11:21.884Z,11.90
2022-09-10T18:13:53.712Z,11.20
2022-09-10T18:16:22.736Z,14.37
2022-09-10T18:18:51.627Z,14.07
2022-09-10T18:21:20.433Z,11.53
2022-09-10T18:23:51.971Z,15.40
2022-09-10T18:26:21.100Z,12.97
2022-09-10T18:28:56.578Z,14.80
2022-09-10T18:31:25.184Z,12.20
2022-09-10T18:33:52.725Z,17.00
2022-09-10T18:36:20.974Z,14.27
2022-09-10T18:38:48.672Z,14.63
2022-09-10T18:41:32.083Z,18.00
2022-09-10T18:44:00.979Z,12.53
2022-09-10T18:46:31.223Z,12.30
2022-09-10T18:49:02.057Z,13.53
2022-09-10T18:51:32.474Z,12.57
2022-09-10T18:54:01.910Z,16.03
2022-09-10T18:56:30.928Z,13.13
2022-09-10T18:58:59.884Z,12.17
2022-09-10T19:01:29.351Z,12.67
2022-09-10T19:03:57.452Z,12.43
2022-09-10T19:06:29.480Z,13.00
2022-09-10T19:09:01.411Z,14.23
2022-09-10T19:11:34.200Z,12.13
2022-09-10T19:14:03.473Z,12.90
2022-09-10T19:16:32.197Z,13.33
2022-09-10T19:19:01.734Z,14.83
2022-09-10T19:21:30.029Z,11.87
2022-09-10T19:23:59.830Z,16.57
2022-09-10T19:26:27.977Z,15.20
2022-09-10T19:28:58.868Z,14.50
2022-09-10T19:31:27.084Z,17.60
2022-09-10T19:33:55.946Z,14.20
2022-09-10T19:36:23.712Z,16.37
2022-09-10T19:38:51.444Z,15.37
2022-09-10T19:41:19.355Z,14.20
2022-09-10T19:43:48.238Z,14.90
2022-09-10T19:46:16.565Z,13.93
2022-09-10T19:48:44.689Z,15.20
2022-09-10T19:51:13.151Z,13.90
2022-09-10T19:53:41.355Z,14.73
2022-09-10T19:56:10.499Z,12.30
2022-09-10T19:58:38.345Z,12.23
2022-09-10T20:01:16.573Z,12.53
2022-09-10T20:03:45.110Z,13.33
2022-09-10T20:06:13.676Z,11.40
2022-09-10T20:08:41.992Z,11.37
2022-09-10T20:11:14.587Z,12.77
2022-09-10T20:13:42.192Z,14.93
2022-09-10T20:16:09.755Z,12.40
2022-09-10T20:18:37.491Z,15.20
2022-09-10T20:21:14.025Z,13.43
2022-09-10T20:23:46.120Z,13.40
2022-09-10T20:26:15.428Z,11.20
2022-09-10T20:28:43.567Z,11.80
2022-09-10T20:31:12.396Z,10.57
2022-09-10T20:33:40.966Z,13.13
2022-09-10T20:36:12.436Z,10.93
2022-09-10T20:38:40.193Z,13.20
2022-09-10T20:41:08.105Z,14.73
2022-09-10T20:43:35.609Z,14.30
2022-09-10T20:46:03.121Z,14.30
2022-09-10T20:48:31.252Z,14.90
2022-09-10T20:50:59.975Z,14.37
2022-09-10T20:53:28.336Z,13.67
2022-09-10T20:56:02.652Z,21.03
2022-09-10T20:58:30.113Z,14.43
2022-09-10T21:01:05.007Z,13.93
2022-09-10T21:03:32.881Z,18.07
2022-09-10T21:06:00.463Z,14.83
2022-09-10T21:08:28.232Z,15.83
2022-09-10T21:10:55.724Z,17.47
2022-09-10T21:13:25.085Z,16.03
2022-09-10T21:15:52.753Z,15.50
2022-09-10T21:18:20.272Z,15.20
2022-09-10T21:20:47.737Z,18.47
2022-09-10T21:23:15.226Z,16.63
2022-09-10T21:25:50.370Z,16.70
2022-09-10T21:28:18.177Z,20.07
2022-09-10T21:30:45.680Z,15.80
2022-09-10T21:33:13.144Z,17.63
2022-09-10T21:35:40.662Z,19.90
2022-09-10T21:38:09.095Z,18.20
2022-09-10T21:40:36.614Z,17.50
2022-09-10T21:43:04.201Z,16.60
2022-09-10T21:45:31.665Z,17.37
2022-09-10T21:47:59.317Z,19.93
2022-09-10T21:50:26.760Z,17.67
2022-09-10T21:52:54.877Z,20.27
2022-09-10T21:55:22.368Z,19.47
2022-09-10T21:57:49.937Z,19.17
2022-09-10T22:00:17.397Z,17.50
2022-09-10T22:02:44.981Z,21.60
2022-09-10T22:05:12.442Z,18.13
2022-09-10T22:07:40.131Z,21.70
2022-09-10T22:10:08.840Z,21.60
2022-09-10T22:12:36.546Z,22.03
2022-09-10T22:15:04.360Z,19.37
2022-09-10T22:17:32.143Z,20.43
2022-09-10T22:19:59.569Z,18.50
2022-09-10T22:22:27.239Z,22.20
2022-09-10T22:24:54.703Z,20.87
2022-09-10T22:27:22.146Z,18.03
2022-09-10T22:29:49.620Z,19.77
2022-09-10T22:32:17.170Z,24.50
2022-09-10T22:34:44.628Z,20.27
2022-09-10T22:37:12.116Z,21.17
2022-09-10T22:39:39.637Z,25.13
2022-09-10T22:42:07.487Z,20.13
2022-09-10T22:44:35.003Z,22.13
2022-09-10T22:47:02.449Z,21.80
2022-09-10T22:49:29.880Z,18.23
2022-09-10T22:51:57.485Z,22.63
2022-09-10T22:54:25.113Z,22.47
2022-09-10T22:56:56.181Z,23.27
2022-09-10T22:59:23.620Z,22.77
2022-09-10T23:01:51.248Z,22.30
2022-09-10T23:04:18.728Z,23.30
2022-09-10T23:06:46.186Z,24.30
2022-09-10T23:09:17.550Z,25.73
2022-09-10T23:11:45.347Z,25.43
2022-09-10T23:14:14.085Z,29.67
2022-09-10T23:16:42.891Z,27.07
2022-09-10T23:19:12.750Z,31.70
2022-09-10T23:21:41.374Z,24.93
2022-09-10T23:24:08.909Z,26.47
2022-09-10T23:26:36.975Z,26.93
2022-09-10T23:29:05.142Z,28.70
2022-09-10T23:31:33.486Z,30.20
2022-09-10T23:34:04.079Z,32.67
2022-09-10T23:36:33.424Z,30.60
2022-09-10T23:39:01.927Z,32.40
2022-09-10T23:41:29.432Z,34.77
2022-09-10T23:43:57.419Z,33.20
2022-09-10T23:46:25.517Z,31.13
2022-09-10T23:48:53.041Z,33.67
2022-09-10T23:51:21.156Z,31.27
2022-09-10T23:53:49.237Z,32.80
2022-09-10T23:56:17.769Z,34.43
2022-09-10T23:58:45.592Z,35.17
